createdAt,value
2022-08-08T00:01:06.677Z,100.00
2022-08-08T00:04:00.432Z,100.00
2022-08-08T00:06:49.843Z,100.00
2022-08-08T00:09:48.371Z,100.00
2022-08-08T00:12:29.872Z,100.00
2022-08-08T00:15:06.160Z,100.00
2022-08-08T00:17:58.488Z,100.00
2022-08-08T00:20:44.676Z,100.00
2022-08-08T00:23:28.296Z,100.00
2022-08-08T00:25:59.405Z,100.00
2022-08-08T00:28:36.924Z,100.00
2022-08-08T00:32:16.163Z,100.00
2022-08-08T00:35:04.082Z,100.00
2022-08-08T00:38:01.561Z,100.00
2022-08-08T00:41:10.328Z,100.00
2022-08-08T00:43:58.982Z,100.00
2022-08-08T00:46:56.804Z,100.00
2022-08-08T00:49:58.537Z,100.00
2022-08-08T00:52:51.565Z,100.00
2022-08-08T00:56:02.147Z,100.00
2022-08-08T00:59:06.564Z,100.00
2022-08-08T01:01:56.009Z,100.00
2022-08-08T01:04:50.457Z,100.00
2022-08-08T01:07:55.255Z,100.00
2022-08-08T01:11:02.037Z,100.00
2022-08-08T01:14:02.575Z,100.00
2022-08-08T01:17:07.501Z,100.00
2022-08-08T01:20:06.126Z,100.00
2022-08-08T01:24:02.539Z,100.00
2022-08-08T01:26:24.373Z,100.00
2022-08-08T01:29:16.985Z,100.00
2022-08-08T01:32:17.516Z,100.00
2022-08-08T01:35:40.751Z,100.00
2022-08-08T01:38:38.888Z,100.00
2022-08-08T01:41:26.573Z,100.00
2022-08-08T01:44:26.600Z,100.00
2022-08-08T01:48:03.686Z,100.00
2022-08-08T01:50:26.456Z,100.00
2022-08-08T01:55:15.981Z,100.00
2022-08-08T01:56:37.869Z,100.00
2022-08-08T01:59:22.007Z,100.00
2022-08-08T02:01:59.807Z,100.00
2022-08-08T02:04:43.453Z,100.00
2022-08-08T02:07:41.635Z,100.00
2022-08-08T02:10:37.278Z,100.00
2022-08-08T02:13:54.100Z,100.00
2022-08-08T02:16:57.942Z,100.00
2022-08-08T02:21:01.554Z,100.00
2022-08-08T02:23:31.876Z,100.00
2022-08-08T02:26:15.810Z,100.00
2022-08-08T02:29:18.801Z,100.00
2022-08-08T02:31:58.725Z,100.00
2022-08-08T02:35:10.627Z,100.00
2022-08-08T02:37:57.032Z,100.00
2022-08-08T02:40:36.243Z,100.00
2022-08-08T02:44:37.668Z,100.00
2022-08-08T02:46:43.937Z,100.00
2022-08-08T02:49:51.274Z,100.00
2022-08-08T02:52:51.589Z,100.00
2022-08-08T02:55:25.215Z,100.00
2022-08-08T02:58:40.242Z,100.00
2022-08-08T03:01:47.493Z,100.00
2022-08-08T03:05:05.048Z,100.00
2022-08-08T03:07:58.342Z,100.00
2022-08-08T03:10:44.768Z,100.00
2022-08-08T03:15:57.289Z,100.00
2022-08-08T03:17:02.182Z,100.00
2022-08-08T03:19:51.091Z,100.00
2022-08-08T03:22:38.925Z,100.00
2022-08-08T03:25:09.187Z,100.00
2022-08-08T03:27:56.735Z,100.00
2022-08-08T03:30:25.399Z,100.00
2022-08-08T03:33:55.986Z,100.00
2022-08-08T03:35:59.571Z,100.00
2022-08-08T03:38:56.983Z,100.00
2022-08-08T03:42:12.563Z,100.00
2022-08-08T03:44:00.813Z,100.00
2022-08-08T03:46:35.474Z,100.00
2022-08-08T03:49:09.634Z,100.00
2022-08-08T03:51:57.177Z,100.00
2022-08-08T03:54:41.080Z,100.00
2022-08-08T03:58:32.185Z,100.00
2022-08-08T04:00:12.194Z,100.00
2022-08-08T04:03:00.398Z,100.00
2022-08-08T04:05:32.639Z,100.00
2022-08-08T04:08:06.991Z,100.00
2022-08-08T04:10:36.219Z,100.00
2022-08-08T04:13:08.196Z,100.00
2022-08-08T04:15:55.127Z,100.00
2022-08-08T04:18:32.229Z,100.00
2022-08-08T04:21:00.012Z,100.00
2022-08-08T04:24:05.627Z,100.00
2022-08-08T04:26:15.182Z,100.00
2022-08-08T04:28:42.813Z,100.00
2022-08-08T04:31:10.307Z,100.00
2022-08-08T04:34:00.610Z,100.00
2022-08-08T04:36:28.142Z,100.00
2022-08-08T04:39:48.075Z,100.00
2022-08-08T04:41:45.661Z,100.00
2022-08-08T04:44:13.120Z,100.00
2022-08-08T04:46:40.220Z,100.00
2022-08-08T04:49:11.428Z,100.00
2022-08-08T04:51:57.474Z,100.00
2022-08-08T04:54:39.572Z,100.00
2022-08-08T04:57:10.101Z,100.00
2022-08-08T04:59:41.878Z,100.00
2022-08-08T05:02:10.368Z,100.00
2022-08-08T05:04:42.040Z,100.00
2022-08-08T05:07:12.095Z,100.00
2022-08-08T05:09:42.829Z,100.00
2022-08-08T05:12:10.353Z,100.00
2022-08-08T05:14:49.196Z,100.00
2022-08-08T05:17:19.494Z,100.00
2022-08-08T05:20:11.160Z,100.00
2022-08-08T05:22:34.662Z,100.00
2022-08-08T05:25:01.982Z,100.00
2022-08-08T05:27:33.068Z,100.00
2022-08-08T05:30:03.299Z,100.00
2022-08-08T05:32:36.150Z,100.00
2022-08-08T05:35:09.678Z,100.00
2022-08-08T05:37:52.985Z,100.00
2022-08-08T05:40:28.006Z,100.00
2022-08-08T05:43:15.487Z,100.00
2022-08-08T05:46:08.066Z,100.00
2022-08-08T05:48:37.676Z,100.00
2022-08-08T05:51:13.240Z,100.00
2022-08-08T05:53:56.228Z,100.00
2022-08-08T05:56:37.502Z,100.00
2022-08-08T05:59:12.723Z,100.00
2022-08-08T06:01:56.798Z,100.00
2022-08-08T06:04:28.322Z,100.00
2022-08-08T06:07:00.377Z,100.00
2022-08-08T06:09:58.557Z,100.00
2022-08-08T06:12:30.342Z,100.00
2022-08-08T06:15:02.689Z,100.00
2022-08-08T06:17:50.863Z,100.00
2022-08-08T06:20:25.986Z,100.00
2022-08-08T06:22:53.774Z,100.00
2022-08-08T06:26:34.895Z,100.00
2022-08-08T06:28:16.038Z,100.00
2022-08-08T06:30:44.772Z,100.00
2022-08-08T06:33:15.135Z,100.00
2022-08-08T06:36:08.561Z,100.00
2022-08-08T06:38:39.272Z,100.00
2022-08-08T06:41:13.200Z,100.00
2022-08-08T06:43:47.531Z,100.00
2022-08-08T06:46:24.223Z,100.00
2022-08-08T06:48:57.740Z,100.00
2022-08-08T06:51:46.735Z,100.00
2022-08-08T06:54:14.463Z,100.00
2022-08-08T06:56:47.273Z,100.00
2022-08-08T06:59:19.117Z,100.00
2022-08-08T07:02:28.070Z,100.00
2022-08-08T07:05:00.551Z,100.00
2022-08-08T07:07:38.935Z,100.00
2022-08-08T07:10:12.661Z,100.00
2022-08-08T07:12:51.982Z,100.00
2022-08-08T07:16:03.480Z,100.00
2022-08-08T07:18:36.097Z,100.00
2022-08-08T07:21:18.586Z,100.00
2022-08-08T07:24:12.790Z,100.00
2022-08-08T07:26:40.828Z,100.00
2022-08-08T07:29:11.603Z,100.00
2022-08-08T07:31:49.064Z,100.00
2022-08-08T07:34:26.651Z,100.00
2022-08-08T07:37:01.411Z,100.00
2022-08-08T07:39:45.876Z,100.00
2022-08-08T07:42:33.021Z,100.00
2022-08-08T07:45:00.885Z,100.00
2022-08-08T07:47:38.624Z,100.00
2022-08-08T07:50:07.368Z,100.00
2022-08-08T07:52:43.960Z,100.00
2022-08-08T07:55:19.113Z,100.00
2022-08-08T07:58:06.840Z,100.00
2022-08-08T08:00:41.830Z,100.00
2022-08-08T08:03:23.628Z,100.00
2022-08-08T08:05:53.264Z,100.00
2022-08-08T08:08:27.687Z,100.00
2022-08-08T08:10:57.883Z,100.00
2022-08-08T08:13:42.670Z,100.00
2022-08-08T08:16:32.426Z,100.00
2022-08-08T08:19:12.859Z,100.00
2022-08-08T08:21:57.055Z,100.00
2022-08-08T08:24:31.941Z,100.00
2022-08-08T08:27:03.525Z,100.00
2022-08-08T08:29:31.675Z,100.00
2022-08-08T08:32:03.320Z,100.00
2022-08-08T08:34:33.872Z,100.00
2022-08-08T08:37:03.545Z,100.00
2022-08-08T08:39:39.275Z,100.00
2022-08-08T08:42:29.095Z,100.00
2022-08-08T08:45:21.281Z,100.00
2022-08-08T08:47:58.427Z,100.00
2022-08-08T08:50:32.692Z,100.00
2022-08-08T08:53:28.220Z,100.00
2022-08-08T08:56:01.943Z,100.00
2022-08-08T08:58:46.941Z,100.00
2022-08-08T09:01:26.798Z,100.00
2022-08-08T09:04:00.822Z,100.00
2022-08-08T09:06:33.622Z,100.00
2022-08-08T09:09:07.120Z,100.00
2022-08-08T09:11:47.654Z,100.00
2022-08-08T09:14:26.545Z,100.00
2022-08-08T09:16:56.340Z,97.20
2022-08-08T09:21:57.824Z,94.50
2022-08-08T09:22:19.644Z,85.85
2022-08-08T09:24:58.643Z,90.20
2022-08-08T09:27:57.033Z,96.29
2022-08-08T09:30:17.777Z,99.95
2022-08-08T09:33:11.856Z,93.85
2022-08-08T09:35:48.853Z,95.47
2022-08-08T09:38:53.085Z,94.94
2022-08-08T09:41:54.821Z,95.80
2022-08-08T09:44:34.339Z,94.17
2022-08-08T09:48:02.407Z,98.79
2022-08-08T09:49:58.883Z,94.85
2022-08-08T09:53:05.632Z,95.06
2022-08-08T09:56:03.847Z,97.25
2022-08-08T09:58:26.322Z,100.00
2022-08-08T10:01:14.534Z,99.74
2022-08-08T10:03:57.339Z,100.00
2022-08-08T10:06:29.551Z,100.00
2022-08-08T10:08:57.745Z,100.00
2022-08-08T10:12:27.698Z,100.00
2022-08-08T10:14:28.277Z,100.00
2022-08-08T10:17:57.321Z,100.00
2022-08-08T10:20:03.873Z,100.00
2022-08-08T10:22:33.279Z,100.00
2022-08-08T10:25:15.906Z,100.00
2022-08-08T10:27:45.217Z,100.00
2022-08-08T10:30:57.014Z,99.55
2022-08-08T10:33:09.584Z,99.16
2022-08-08T10:36:08.923Z,98.52
2022-08-08T10:38:31.086Z,98.82
2022-08-08T10:41:05.734Z,91.43
2022-08-08T10:43:40.375Z,92.28
2022-08-08T10:46:30.401Z,90.93
2022-08-08T10:49:00.298Z,92.42
2022-08-08T10:51:40.806Z,86.89
2022-08-08T10:54:24.948Z,84.42
2022-08-08T10:57:03.936Z,84.98
2022-08-08T10:59:39.704Z,88.06
2022-08-08T11:02:09.069Z,92.33
2022-08-08T11:04:53.354Z,88.93
2022-08-08T11:08:30.983Z,88.08
2022-08-08T11:10:28.636Z,82.81
2022-08-08T11:13:29.896Z,76.81
2022-08-08T11:15:54.752Z,73.91
2022-08-08T11:18:30.332Z,73.92
2022-08-08T11:21:00.959Z,68.36
2022-08-08T11:23:36.595Z,68.83
2022-08-08T11:26:06.382Z,67.11
2022-08-08T11:28:38.715Z,69.08
2022-08-08T11:31:09.623Z,68.17
2022-08-08T11:33:53.152Z,72.51
2022-08-08T11:36:29.615Z,70.77
2022-08-08T11:38:57.617Z,75.73
2022-08-08T11:41:32.265Z,77.85
2022-08-08T11:44:00.450Z,80.89
2022-08-08T11:46:30.571Z,80.88
2022-08-08T11:49:07.531Z,72.63
2022-08-08T11:51:39.616Z,75.69
2022-08-08T11:54:27.353Z,73.99
2022-08-08T11:57:34.891Z,71.48
2022-08-08T12:00:07.477Z,69.19
2022-08-08T12:02:51.063Z,68.26
2022-08-08T12:05:19.059Z,68.04
2022-08-08T12:07:53.224Z,69.02
2022-08-08T12:10:22.940Z,74.83
2022-08-08T12:13:06.856Z,75.56
2022-08-08T12:15:47.219Z,74.22
2022-08-08T12:18:21.702Z,70.45
2022-08-08T12:21:13.504Z,66.20
2022-08-08T12:23:58.301Z,62.17
2022-08-08T12:26:59.224Z,58.10
2022-08-08T12:29:40.489Z,54.53
2022-08-08T12:32:20.389Z,57.04
2022-08-08T12:35:13.215Z,58.89
2022-08-08T12:38:01.678Z,57.67
2022-08-08T12:40:37.860Z,57.52
2022-08-08T12:43:47.837Z,57.91
2022-08-08T12:46:26.038Z,56.33
2022-08-08T12:49:25.000Z,55.02
2022-08-08T12:51:59.347Z,55.27
2022-08-08T12:54:41.011Z,56.94
2022-08-08T12:57:24.193Z,58.78
2022-08-08T13:00:05.851Z,59.84
2022-08-08T13:02:42.245Z,61.60
2022-08-08T13:05:26.900Z,60.87
2022-08-08T13:08:16.767Z,62.99
2022-08-08T13:10:58.508Z,58.75
2022-08-08T13:13:36.745Z,54.97
2022-08-08T13:16:25.622Z,55.68
2022-08-08T13:19:01.609Z,52.96
2022-08-08T13:21:53.793Z,50.11
2022-08-08T13:24:42.567Z,47.53
2022-08-08T13:27:15.068Z,46.18
2022-08-08T13:30:04.532Z,46.61
2022-08-08T13:32:35.951Z,44.59
2022-08-08T13:35:11.551Z,44.33
2022-08-08T13:38:08.115Z,44.29
2022-08-08T13:40:41.045Z,45.12
2022-08-08T13:43:08.733Z,47.57
2022-08-08T13:45:36.924Z,49.98
2022-08-08T13:48:13.704Z,52.13
2022-08-08T13:50:53.844Z,53.35
2022-08-08T13:53:31.640Z,54.67
2022-08-08T13:56:05.705Z,55.00
2022-08-08T13:58:34.754Z,53.77
2022-08-08T14:01:42.272Z,53.20
2022-08-08T14:04:27.736Z,52.72
2022-08-08T14:07:04.586Z,53.01
2022-08-08T14:10:04.551Z,52.63
2022-08-08T14:12:31.692Z,53.76
2022-08-08T14:15:00.356Z,54.46
2022-08-08T14:17:57.765Z,55.81
2022-08-08T14:20:57.754Z,57.07
2022-08-08T14:24:03.538Z,57.40
2022-08-08T14:26:03.957Z,58.12
2022-08-08T14:28:39.579Z,58.06
2022-08-08T14:31:09.820Z,58.73
2022-08-08T14:33:37.344Z,56.98
2022-08-08T14:36:06.749Z,50.26
2022-08-08T14:38:52.910Z,48.19
2022-08-08T14:41:45.113Z,47.90
2022-08-08T14:44:19.562Z,49.28
2022-08-08T14:47:00.138Z,49.83
2022-08-08T14:49:37.787Z,48.74
2022-08-08T14:52:21.172Z,46.14
2022-08-08T14:54:49.324Z,43.59
2022-08-08T14:57:17.071Z,43.98
2022-08-08T14:59:51.439Z,44.86
2022-08-08T15:02:31.371Z,45.42
2022-08-08T15:05:08.271Z,44.16
2022-08-08T15:07:40.261Z,44.08
2022-08-08T15:10:10.101Z,43.07
2022-08-08T15:12:38.601Z,43.25
2022-08-08T15:15:09.443Z,43.09
2022-08-08T15:17:40.775Z,44.23
2022-08-08T15:20:13.904Z,43.46
2022-08-08T15:22:44.618Z,42.12
2022-08-08T15:25:17.308Z,44.51
2022-08-08T15:28:05.072Z,45.61
2022-08-08T15:30:45.704Z,46.30
2022-08-08T15:33:14.285Z,46.34
2022-08-08T15:35:48.851Z,46.21
2022-08-08T15:38:17.318Z,46.54
2022-08-08T15:40:46.312Z,45.34
2022-08-08T15:43:18.665Z,44.08
2022-08-08T15:46:02.536Z,43.31
2022-08-08T15:48:29.955Z,43.58
2022-08-08T15:51:01.259Z,45.09
2022-08-08T15:53:40.358Z,45.64
2022-08-08T15:56:19.945Z,49.39
2022-08-08T15:58:48.846Z,50.13
2022-08-08T16:01:17.327Z,50.80
2022-08-08T16:03:47.994Z,50.78
2022-08-08T16:06:28.213Z,50.08
2022-08-08T16:13:00.957Z,48.29
2022-08-08T16:13:09.906Z,46.81
2022-08-08T16:14:33.764Z,46.72
2022-08-08T16:17:02.173Z,46.30
2022-08-08T16:20:00.227Z,45.33
2022-08-08T16:22:30.552Z,43.98
2022-08-08T16:25:09.854Z,43.52
2022-08-08T16:27:38.947Z,43.84
2022-08-08T16:30:13.709Z,43.22
2022-08-08T16:32:42.261Z,43.16
2022-08-08T16:35:09.973Z,43.71
2022-08-08T16:37:40.368Z,44.00
2022-08-08T16:40:14.486Z,44.86
2022-08-08T16:42:51.652Z,43.72
2022-08-08T16:46:37.543Z,42.85
2022-08-08T16:48:09.558Z,42.93
2022-08-08T16:50:40.537Z,43.54
2022-08-08T16:55:19.498Z,44.37
2022-08-08T16:55:58.104Z,42.76
2022-08-08T16:58:32.633Z,43.36
2022-08-08T17:01:09.315Z,43.46
2022-08-08T17:03:59.327Z,44.50
2022-08-08T17:06:36.849Z,44.71
2022-08-08T17:09:14.874Z,44.67
2022-08-08T17:11:48.471Z,45.04
2022-08-08T17:14:27.098Z,46.19
2022-08-08T17:16:58.882Z,48.82
2022-08-08T17:19:29.667Z,52.39
2022-08-08T17:22:00.970Z,55.24
2022-08-08T17:24:30.824Z,58.48
2022-08-08T17:27:00.167Z,64.31
2022-08-08T17:29:28.090Z,71.70
2022-08-08T17:32:05.882Z,75.23
2022-08-08T17:34:59.952Z,77.90
2022-08-08T17:37:27.592Z,81.43
2022-08-08T17:40:06.310Z,85.94
2022-08-08T17:42:41.404Z,88.92
2022-08-08T17:45:22.220Z,91.26
2022-08-08T17:47:51.917Z,93.34
2022-08-08T17:50:23.688Z,90.89
2022-08-08T17:52:53.015Z,88.91
2022-08-08T17:56:05.260Z,88.75
2022-08-08T17:58:11.737Z,91.09
2022-08-08T18:00:41.206Z,93.31
2022-08-08T18:03:13.626Z,94.80
2022-08-08T18:05:48.999Z,98.17
2022-08-08T18:08:25.198Z,100.00
2022-08-08T18:11:15.517Z,100.00
2022-08-08T18:13:47.182Z,100.00
2022-08-08T18:16:17.193Z,100.00
2022-08-08T18:18:53.144Z,100.00
2022-08-08T18:21:59.312Z,100.00
2022-08-08T18:24:19.422Z,100.00
2022-08-08T18:26:53.857Z,100.00
2022-08-08T18:29:29.474Z,100.00
2022-08-08T18:32:08.543Z,100.00
2022-08-08T18:34:37.868Z,100.00
2022-08-08T18:37:09.413Z,100.00
2022-08-08T18:39:41.197Z,100.00
2022-08-08T18:42:15.897Z,100.00
2022-08-08T18:44:55.894Z,100.00
2022-08-08T18:47:31.239Z,100.00
2022-08-08T18:50:02.869Z,100.00
2022-08-08T18:52:37.546Z,100.00
2022-08-08T18:55:10.618Z,100.00
2022-08-08T18:57:45.080Z,100.00
2022-08-08T19:00:19.862Z,100.00
2022-08-08T19:02:55.893Z,100.00
2022-08-08T19:05:32.323Z,100.00
2022-08-08T19:08:25.714Z,100.00
2022-08-08T19:11:01.594Z,100.00
2022-08-08T19:13:53.504Z,100.00
2022-08-08T19:16:19.085Z,100.00
2022-08-08T19:18:53.029Z,100.00
2022-08-08T19:21:30.907Z,100.00
2022-08-08T19:24:01.431Z,100.00
2022-08-08T19:26:37.351Z,100.00
2022-08-08T19:29:08.386Z,100.00
2022-08-08T19:31:38.467Z,100.00
2022-08-08T19:34:29.902Z,100.00
2022-08-08T19:36:59.312Z,100.00
2022-08-08T19:39:35.148Z,100.00
2022-08-08T19:42:09.048Z,100.00
2022-08-08T19:44:42.775Z,100.00
2022-08-08T19:47:14.210Z,100.00
2022-08-08T19:49:43.357Z,100.00
2022-08-08T19:52:35.139Z,100.00
2022-08-08T19:55:09.613Z,100.00
2022-08-08T19:57:43.120Z,100.00
2022-08-08T20:00:30.658Z,100.00
2022-08-08T20:03:14.524Z,100.00
2022-08-08T20:06:14.153Z,100.00
2022-08-08T20:08:37.290Z,100.00
2022-08-08T20:11:04.809Z,100.00
2022-08-08T20:14:33.055Z,100.00
2022-08-08T20:16:20.829Z,100.00
2022-08-08T20:18:53.922Z,100.00
2022-08-08T20:21:25.441Z,100.00
2022-08-08T20:23:58.598Z,100.00
2022-08-08T20:26:33.625Z,100.00
2022-08-08T20:29:07.007Z,100.00
2022-08-08T20:32:02.658Z,100.00
2022-08-08T20:34:30.308Z,100.00
2022-08-08T20:37:03.034Z,100.00
2022-08-08T20:39:39.720Z,100.00
2022-08-08T20:42:20.328Z,100.00
2022-08-08T20:44:47.602Z,100.00
2022-08-08T20:47:23.325Z,100.00
2022-08-08T20:49:57.540Z,100.00
2022-08-08T20:52:28.747Z,100.00
2022-08-08T20:54:57.873Z,100.00
2022-08-08T20:57:27.731Z,100.00
2022-08-08T20:59:59.078Z,100.00
2022-08-08T21:02:29.046Z,100.00
2022-08-08T21:05:00.331Z,100.00
2022-08-08T21:07:31.163Z,100.00
2022-08-08T21:10:15.691Z,100.00
2022-08-08T21:12:44.471Z,100.00
2022-08-08T21:15:16.242Z,100.00
2022-08-08T21:18:00.859Z,100.00
2022-08-08T21:20:34.418Z,100.00
2022-08-08T21:23:02.402Z,100.00
2022-08-08T21:25:36.308Z,100.00
2022-08-08T21:28:15.069Z,100.00
2022-08-08T21:30:45.341Z,100.00
2022-08-08T21:33:17.024Z,100.00
2022-08-08T21:36:17.423Z,100.00
2022-08-08T21:38:31.268Z,100.00
2022-08-08T21:40:58.350Z,100.00
2022-08-08T21:43:31.048Z,100.00
2022-08-08T21:48:08.621Z,100.00
2022-08-08T21:48:57.721Z,100.00
2022-08-08T21:54:31.634Z,100.00
2022-08-08T21:54:32.567Z,100.00
2022-08-08T21:57:05.042Z,100.00
2022-08-08T22:00:01.192Z,100.00
2022-08-08T22:02:23.448Z,100.00
2022-08-08T22:04:59.242Z,100.00
2022-08-08T22:07:40.163Z,100.00
2022-08-08T22:10:09.913Z,100.00
2022-08-08T22:12:46.038Z,100.00
2022-08-08T22:15:14.098Z,100.00
2022-08-08T22:17:45.842Z,100.00
2022-08-08T22:20:24.054Z,100.00
2022-08-08T22:22:57.496Z,100.00
2022-08-08T22:25:41.500Z,100.00
2022-08-08T22:29:14.317Z,100.00
2022-08-08T22:31:07.458Z,100.00
2022-08-08T22:34:13.606Z,100.00
2022-08-08T22:36:32.403Z,100.00
2022-08-08T22:39:01.958Z,100.00
2022-08-08T22:41:36.077Z,100.00
2022-08-08T22:44:06.936Z,100.00
2022-08-08T22:46:38.975Z,100.00
2022-08-08T22:49:07.024Z,100.00
2022-08-08T22:51:42.755Z,100.00
2022-08-08T22:54:32.153Z,100.00
2022-08-08T22:57:02.308Z,100.00
2022-08-08T22:59:59.077Z,100.00
2022-08-08T23:02:28.813Z,100.00
2022-08-08T23:04:57.879Z,100.00
2022-08-08T23:07:51.446Z,100.00
2022-08-08T23:10:19.707Z,100.00
2022-08-08T23:12:51.671Z,100.00
2022-08-08T23:16:39.330Z,100.00
2022-08-08T23:18:12.113Z,100.00
2022-08-08T23:20:43.752Z,100.00
2022-08-08T23:23:12.890Z,100.00
2022-08-08T23:25:48.162Z,100.00
2022-08-08T23:28:18.167Z,100.00
2022-08-08T23:30:47.413Z,100.00
2022-08-08T23:33:20.954Z,100.00
2022-08-08T23:36:10.200Z,100.00
2022-08-08T23:38:41.852Z,100.00
2022-08-08T23:41:22.891Z,100.00
2022-08-08T23:43:57.107Z,100.00
2022-08-08T23:49:03.342Z,100.00
2022-08-08T23:49:18.210Z,100.00
2022-08-08T23:52:04.555Z,100.00
2022-08-08T23:54:42.046Z,100.00
2022-08-08T23:57:27.129Z,100.00
